Terminal Aerodrome Forecast
Issued by NWS

Home | Current Version | Previous Version | Text Only | Print | Product List | Glossary On
Versions: 1 2 3 4 5 6 7 8 9 10 11 12 13 14 15 16 17
215
FTUS44 KLIX 041120
TAFMCB
TAF
KMCB 041120Z 0412/0512 34004KT P6SM FEW250
     FM041900 32012KT P6SM SCT060
     FM050100 31008KT P6SM SKC
     FM051100 36005KT P6SM SKC=

USA.gov is the U.S. government's official web portal to all federal, state and local government web resources and services.